Terminal Aerodrome Forecast
Issued by NWS Albuquerque, NM

Home | Current Version | Previous Version | Text Only | Print | Product List | Glossary On
Versions: 1 2 3 4 5 6 7 8 9 10 11 12 13
000
FTUS45 KABQ 211139
TAFABQ
TAF
KABQ 211139Z 2112/2212 VRB05KT P6SM SCT050
     FM211400 30008KT P6SM BKN050
     FM211800 32011KT P6SM FEW080
     FM220300 09006KT P6SM SKC=

USA.gov is the U.S. government's official web portal to all federal, state and local government web resources and services.